Terminal Aerodrome Forecast
Issued by NWS

Home | Current Version | Previous Version | Text Only | Print | Product List | Glossary On
Versions: 1 2 3 4 5 6 7 8 9 10 11 12 13 14
000
FTUS45 KGJT 212343
TAFTEX
TAF
KTEX 212343Z 2200/2224 24003KT P6SM OVC110
     FM220400 21009KT P6SM BKN050 OVC110
     FM221000 25010G21KT P6SM -SHRA BKN035 OVC110
     FM221400 25008KT P6SM VCSH BKN040 OVC110
     FM221800 21013G27KT P6SM BKN040 OVC110=

USA.gov is the U.S. government's official web portal to all federal, state and local government web resources and services.